createdAt,value
2018-07-27T00:00:03.536Z,21.50
2018-07-27T00:02:32.076Z,21.50
2018-07-27T00:05:00.633Z,21.40
2018-07-27T00:07:29.241Z,21.40
2018-07-27T00:09:57.839Z,21.40
2018-07-27T00:12:26.426Z,21.40
2018-07-27T00:14:55.032Z,21.40
2018-07-27T00:17:24.942Z,21.10
2018-07-27T00:22:21.941Z,21.10
2018-07-27T00:24:50.498Z,21.00
2018-07-27T00:27:19.074Z,21.10
2018-07-27T00:32:16.472Z,21.20
2018-07-27T00:34:45.037Z,21.10
2018-07-27T00:37:13.577Z,21.10
2018-07-27T00:39:42.159Z,21.10
2018-07-27T00:42:10.712Z,21.10
2018-07-27T00:44:39.294Z,21.10
2018-07-27T00:47:07.854Z,21.00
2018-07-27T00:49:37.656Z,21.00
2018-07-27T00:54:34.786Z,20.90
2018-07-27T00:57:03.369Z,20.90
2018-07-27T00:59:31.901Z,20.80
2018-07-27T01:02:01.260Z,20.80
2018-07-27T01:04:29.829Z,20.70
2018-07-27T01:06:58.402Z,20.50
2018-07-27T01:09:28.477Z,20.60
2018-07-27T01:14:25.313Z,20.60
2018-07-27T01:17:00.666Z,20.50
2018-07-27T01:19:29.233Z,20.50
2018-07-27T01:21:57.818Z,20.40
2018-07-27T01:24:26.392Z,20.40
2018-07-27T01:26:55.232Z,20.30
2018-07-27T01:31:52.048Z,20.40
2018-07-27T01:34:21.127Z,20.40
2018-07-27T01:36:50.260Z,20.30
2018-07-27T01:39:19.300Z,20.20
2018-07-27T01:41:48.361Z,20.10
2018-07-27T01:46:45.937Z,20.10
2018-07-27T01:49:14.489Z,20.10
2018-07-27T01:51:43.105Z,20.00
2018-07-27T01:54:11.696Z,20.00
2018-07-27T01:59:08.842Z,20.10
2018-07-27T02:01:37.442Z,20.00
2018-07-27T02:04:06.024Z,19.90
2018-07-27T02:06:35.104Z,19.80
2018-07-27T02:09:05.922Z,19.80
2018-07-27T02:11:34.506Z,19.80
2018-07-27T02:14:04.053Z,19.80
2018-07-27T02:16:32.784Z,19.80
2018-07-27T02:19:01.370Z,19.80
2018-07-27T02:21:29.942Z,19.70
2018-07-27T02:23:58.449Z,19.70
2018-07-27T02:26:27.017Z,19.70
2018-07-27T02:29:02.888Z,19.70
2018-07-27T02:31:31.454Z,19.70
2018-07-27T02:34:00.609Z,19.70
2018-07-27T02:36:29.710Z,19.50
2018-07-27T02:43:54.617Z,19.50
2018-07-27T02:46:23.174Z,19.40
2018-07-27T02:48:51.657Z,19.40
2018-07-27T02:51:20.279Z,19.30
2018-07-27T02:53:48.770Z,19.40
2018-07-27T02:56:17.289Z,19.20
2018-07-27T02:58:45.826Z,19.30
2018-07-27T03:01:14.341Z,19.10
2018-07-27T03:03:42.870Z,19.20
2018-07-27T03:06:11.374Z,19.20
2018-07-27T03:08:39.930Z,19.20
2018-07-27T03:11:09.045Z,19.20
2018-07-27T03:13:37.577Z,19.20
2018-07-27T03:16:06.109Z,19.20
2018-07-27T03:18:34.646Z,19.00
2018-07-27T03:21:03.181Z,19.10
2018-07-27T03:23:31.740Z,19.00
2018-07-27T03:26:00.256Z,19.10
2018-07-27T03:28:29.235Z,19.00
2018-07-27T03:30:57.793Z,19.00
2018-07-27T03:33:26.357Z,19.00
2018-07-27T03:35:55.063Z,19.00
2018-07-27T03:38:23.614Z,18.90
2018-07-27T03:40:52.333Z,18.80
2018-07-27T03:43:20.897Z,18.80
2018-07-27T03:45:49.429Z,18.80
2018-07-27T03:48:19.012Z,18.80
2018-07-27T03:50:47.580Z,18.70
2018-07-27T03:53:16.137Z,18.60
2018-07-27T03:58:12.861Z,18.70
2018-07-27T04:00:42.874Z,18.60
2018-07-27T04:03:11.908Z,18.70
2018-07-27T04:08:09.356Z,18.60
2018-07-27T04:10:38.481Z,18.60
2018-07-27T04:13:07.011Z,18.70
2018-07-27T04:15:35.544Z,18.60
2018-07-27T04:18:04.101Z,18.70
2018-07-27T04:20:33.446Z,18.70
2018-07-27T04:23:01.974Z,18.70
2018-07-27T04:25:31.481Z,18.70
2018-07-27T04:28:00.025Z,18.80
2018-07-27T04:30:28.597Z,18.70
2018-07-27T04:32:57.131Z,18.80
2018-07-27T04:35:25.669Z,18.70
2018-07-27T04:37:54.193Z,18.80
2018-07-27T04:40:23.225Z,18.80
2018-07-27T04:45:20.013Z,18.70
2018-07-27T04:47:48.529Z,18.70
2018-07-27T04:50:17.565Z,18.70
2018-07-27T04:52:46.087Z,18.80
2018-07-27T04:55:14.675Z,18.90
2018-07-27T04:57:43.176Z,18.80
2018-07-27T05:00:11.741Z,18.80
2018-07-27T05:02:40.277Z,18.90
2018-07-27T05:05:08.802Z,19.00
2018-07-27T05:07:37.313Z,18.90
2018-07-27T05:10:11.513Z,19.00
2018-07-27T05:12:40.152Z,19.00
2018-07-27T05:15:09.196Z,19.10
2018-07-27T05:17:38.148Z,19.10
2018-07-27T05:20:07.493Z,19.00
2018-07-27T05:22:36.023Z,19.00
2018-07-27T05:25:04.694Z,19.10
2018-07-27T05:27:33.214Z,19.10
2018-07-27T05:30:02.233Z,19.20
2018-07-27T05:32:30.726Z,19.40
2018-07-27T05:34:59.777Z,19.60
2018-07-27T05:37:28.333Z,20.50
2018-07-27T05:39:56.889Z,22.30
2018-07-27T05:42:25.409Z,24.00
2018-07-27T05:47:22.249Z,26.60
2018-07-27T05:49:50.787Z,27.10
2018-07-27T05:52:19.336Z,27.70
2018-07-27T05:57:16.146Z,28.70
2018-07-27T05:59:44.708Z,29.00
2018-07-27T06:02:13.310Z,28.70
2018-07-27T06:04:41.860Z,28.40
2018-07-27T06:07:10.462Z,28.50
2018-07-27T06:09:39.046Z,28.50
2018-07-27T06:12:07.649Z,28.20
2018-07-27T06:14:36.234Z,27.90
2018-07-27T06:17:04.805Z,27.80
2018-07-27T06:19:33.359Z,27.50
2018-07-27T06:24:51.675Z,26.30
2018-07-27T06:27:20.644Z,25.70
2018-07-27T06:29:49.586Z,25.40
2018-07-27T06:32:18.665Z,25.30
2018-07-27T06:34:47.340Z,25.20
2018-07-27T06:37:16.128Z,25.10
2018-07-27T06:39:45.825Z,25.20
2018-07-27T06:42:14.957Z,25.20
2018-07-27T06:44:43.514Z,25.30
2018-07-27T06:47:12.093Z,25.40
2018-07-27T06:49:40.658Z,25.50
2018-07-27T06:52:10.500Z,25.50
2018-07-27T06:54:39.062Z,25.60
2018-07-27T06:57:07.641Z,25.80
2018-07-27T06:59:36.241Z,26.00
2018-07-27T07:02:04.873Z,26.00
2018-07-27T07:04:34.182Z,26.10
2018-07-27T07:07:02.833Z,26.20
2018-07-27T07:09:31.372Z,26.30
2018-07-27T07:11:59.914Z,26.50
2018-07-27T07:14:28.477Z,26.50
2018-07-27T07:16:57.025Z,26.60
2018-07-27T07:19:25.737Z,26.70
2018-07-27T07:21:54.366Z,26.70
2018-07-27T07:24:23.515Z,26.90
2018-07-27T07:26:52.057Z,27.00
2018-07-27T07:29:20.561Z,27.20
2018-07-27T07:31:49.709Z,27.40
2018-07-27T07:34:19.073Z,27.50
2018-07-27T07:36:48.870Z,27.70
2018-07-27T07:39:17.437Z,27.90
2018-07-27T07:41:46.652Z,27.90
2018-07-27T07:49:12.585Z,28.20
2018-07-27T07:51:41.146Z,28.30
2018-07-27T07:54:10.245Z,28.40
2018-07-27T07:56:39.075Z,28.30
2018-07-27T08:01:36.781Z,28.10
2018-07-27T08:04:07.525Z,28.10
2018-07-27T08:06:36.773Z,28.20
2018-07-27T08:09:08.275Z,28.20
2018-07-27T08:11:37.053Z,28.20
2018-07-27T08:14:05.751Z,28.20
2018-07-27T08:16:34.469Z,28.30
2018-07-27T08:19:03.825Z,28.30
2018-07-27T08:21:33.325Z,28.30
2018-07-27T08:24:03.961Z,28.20
2018-07-27T08:26:41.693Z,28.40
2018-07-27T08:29:13.114Z,28.40
2018-07-27T08:31:43.967Z,28.40
2018-07-27T08:34:13.706Z,28.50
2018-07-27T08:36:42.345Z,28.60
2018-07-27T08:39:12.935Z,28.60
2018-07-27T08:41:42.002Z,28.60
2018-07-27T08:44:11.622Z,28.60
2018-07-27T08:46:40.265Z,28.70
2018-07-27T08:49:09.901Z,28.80
2018-07-27T08:51:38.771Z,28.90
2018-07-27T08:54:07.602Z,28.90
2018-07-27T08:56:36.146Z,28.80
2018-07-27T08:59:05.217Z,28.90
2018-07-27T09:04:02.238Z,29.10
2018-07-27T09:06:30.758Z,29.30
2018-07-27T09:14:02.290Z,29.30
2018-07-27T09:16:30.929Z,29.50
2018-07-27T09:18:59.515Z,29.50
2018-07-27T09:21:28.058Z,29.50
2018-07-27T09:23:56.638Z,29.50
2018-07-27T09:26:25.470Z,29.60
2018-07-27T09:28:54.945Z,29.80
2018-07-27T09:31:23.560Z,29.90
2018-07-27T09:33:52.097Z,30.00
2018-07-27T09:36:20.649Z,30.00
2018-07-27T09:38:50.252Z,29.90
2018-07-27T09:41:18.811Z,30.10
2018-07-27T09:43:47.403Z,30.10
2018-07-27T09:48:51.246Z,30.10
2018-07-27T09:51:20.888Z,30.20
2018-07-27T09:53:49.668Z,30.20
2018-07-27T09:56:18.318Z,30.20
2018-07-27T10:03:49.090Z,30.30
2018-07-27T10:08:45.832Z,30.30
2018-07-27T10:11:14.437Z,30.40
2018-07-27T10:16:11.205Z,30.60
2018-07-27T10:18:39.781Z,30.80
2018-07-27T10:23:37.741Z,30.80
2018-07-27T10:26:06.390Z,30.80
2018-07-27T10:28:34.967Z,30.80
2018-07-27T10:31:03.568Z,30.90
2018-07-27T10:33:32.132Z,30.90
2018-07-27T10:36:00.681Z,31.00
2018-07-27T10:38:30.116Z,31.00
2018-07-27T10:43:26.991Z,31.00
2018-07-27T10:45:56.380Z,31.00
2018-07-27T10:48:25.548Z,31.20
2018-07-27T10:50:54.087Z,31.10
2018-07-27T10:53:22.662Z,31.20
2018-07-27T10:55:51.204Z,31.10
2018-07-27T11:00:49.335Z,31.30
2018-07-27T11:03:18.001Z,31.30
2018-07-27T11:05:46.557Z,31.40
2018-07-27T11:10:43.337Z,31.30
2018-07-27T11:13:12.781Z,31.40
2018-07-27T11:15:41.388Z,31.50
2018-07-27T11:18:09.974Z,31.60
2018-07-27T11:20:38.574Z,31.60
2018-07-27T11:23:07.135Z,31.60
2018-07-27T11:25:37.922Z,31.60
2018-07-27T11:28:07.298Z,31.60
2018-07-27T11:30:35.878Z,31.60
2018-07-27T11:33:05.196Z,31.60
2018-07-27T11:35:33.753Z,31.70
2018-07-27T11:38:03.501Z,31.60
2018-07-27T11:40:32.628Z,31.60
2018-07-27T11:43:01.153Z,31.60
2018-07-27T11:45:29.710Z,31.60
2018-07-27T11:47:58.233Z,31.60
2018-07-27T11:50:26.777Z,31.70
2018-07-27T11:52:55.325Z,31.80
2018-07-27T11:55:24.014Z,31.60
2018-07-27T11:57:53.209Z,31.60
2018-07-27T12:00:21.807Z,31.50
2018-07-27T12:02:51.001Z,31.70
2018-07-27T12:05:19.557Z,31.80
2018-07-27T12:10:16.570Z,31.80
2018-07-27T12:12:45.506Z,31.80
2018-07-27T12:17:43.969Z,31.80
2018-07-27T12:20:14.828Z,32.00
2018-07-27T12:25:11.834Z,31.90
2018-07-27T12:27:40.377Z,31.90
2018-07-27T12:30:09.173Z,32.00
2018-07-27T12:35:06.074Z,31.80
2018-07-27T12:37:34.597Z,31.90
2018-07-27T12:40:03.265Z,32.00
2018-07-27T12:42:31.853Z,32.00
2018-07-27T12:45:00.589Z,32.00
2018-07-27T12:47:29.164Z,32.00
2018-07-27T12:52:27.070Z,32.10
2018-07-27T12:54:56.320Z,32.00
2018-07-27T12:57:24.890Z,32.10
2018-07-27T12:59:55.330Z,32.20
2018-07-27T13:02:25.860Z,32.30
2018-07-27T13:04:54.512Z,32.40
2018-07-27T13:07:23.038Z,32.50
2018-07-27T13:09:58.376Z,32.40
2018-07-27T13:12:26.891Z,32.50
2018-07-27T13:17:24.379Z,32.40
2018-07-27T13:22:21.226Z,32.40
2018-07-27T13:24:56.785Z,32.40
2018-07-27T13:27:18.265Z,32.40
2018-07-27T13:29:46.872Z,32.40
2018-07-27T13:37:15.132Z,32.60
2018-07-27T13:39:44.506Z,32.60
2018-07-27T13:42:15.162Z,32.60
2018-07-27T13:44:44.078Z,32.70
2018-07-27T13:47:13.051Z,32.70
2018-07-27T13:49:42.253Z,32.60
2018-07-27T13:52:10.834Z,32.80
2018-07-27T13:54:39.418Z,32.80
2018-07-27T13:57:08.224Z,32.80
2018-07-27T13:59:36.945Z,32.90
2018-07-27T14:07:03.175Z,32.90
2018-07-27T14:09:31.741Z,32.80
2018-07-27T14:12:00.373Z,32.70
2018-07-27T14:14:28.933Z,32.60
2018-07-27T14:16:57.611Z,32.70
2018-07-27T14:19:27.186Z,32.60
2018-07-27T14:21:55.735Z,32.60
2018-07-27T14:24:24.268Z,32.60
2018-07-27T14:26:52.864Z,32.50
2018-07-27T14:29:21.481Z,32.50
2018-07-27T14:31:50.096Z,32.60
2018-07-27T14:34:18.618Z,32.70
2018-07-27T14:36:47.181Z,32.70
2018-07-27T14:39:16.503Z,32.70
2018-07-27T14:41:45.290Z,32.70
2018-07-27T14:44:13.964Z,32.40
2018-07-27T14:46:42.522Z,32.50
2018-07-27T14:51:41.193Z,32.80
2018-07-27T14:54:10.953Z,32.70
2018-07-27T14:56:40.180Z,32.70
2018-07-27T14:59:09.359Z,32.60
2018-07-27T15:01:38.369Z,32.60
2018-07-27T15:04:07.543Z,32.50
2018-07-27T15:06:36.140Z,32.50
2018-07-27T15:09:07.822Z,32.60
2018-07-27T15:11:36.350Z,32.60
2018-07-27T15:16:33.061Z,32.60
2018-07-27T15:19:01.569Z,32.60
2018-07-27T15:23:58.325Z,32.40
2018-07-27T15:26:26.972Z,32.60
2018-07-27T15:28:55.457Z,32.60
2018-07-27T15:31:24.045Z,32.60
2018-07-27T15:33:52.598Z,32.50
2018-07-27T15:36:21.148Z,32.60
2018-07-27T15:38:49.662Z,32.60
2018-07-27T15:41:18.214Z,32.50
2018-07-27T15:43:46.754Z,32.50
2018-07-27T15:46:15.312Z,32.40
2018-07-27T15:48:43.880Z,32.20
2018-07-27T15:53:40.652Z,32.20
2018-07-27T15:56:09.221Z,32.20
2018-07-27T16:01:06.167Z,32.20
2018-07-27T16:03:34.674Z,32.40
2018-07-27T16:08:31.462Z,32.20
2018-07-27T16:11:00.650Z,32.20
2018-07-27T16:13:29.185Z,32.20
2018-07-27T16:15:57.757Z,32.10
2018-07-27T16:18:26.309Z,32.10
2018-07-27T16:20:54.873Z,32.20
2018-07-27T16:23:23.432Z,32.20
2018-07-27T16:28:20.827Z,32.10
2018-07-27T16:30:49.393Z,32.00
2018-07-27T16:35:46.132Z,32.00
2018-07-27T16:38:14.652Z,31.90
2018-07-27T16:40:43.154Z,31.90
2018-07-27T16:43:11.681Z,32.00
2018-07-27T16:45:40.259Z,31.90
2018-07-27T16:48:08.757Z,31.80
2018-07-27T16:50:37.980Z,31.90
2018-07-27T16:55:34.689Z,31.90
2018-07-27T16:58:03.273Z,31.90
2018-07-27T17:00:32.041Z,31.90
2018-07-27T17:03:00.591Z,31.70
2018-07-27T17:10:25.558Z,31.90
2018-07-27T17:12:54.087Z,31.80
2018-07-27T17:15:22.605Z,31.80
2018-07-27T17:17:51.150Z,31.70
2018-07-27T17:20:19.684Z,31.80
2018-07-27T17:22:49.685Z,31.70
2018-07-27T17:25:18.426Z,31.60
2018-07-27T17:27:46.945Z,31.50
2018-07-27T17:32:43.784Z,31.30
2018-07-27T17:35:13.017Z,31.40
2018-07-27T17:37:41.956Z,31.30
2018-07-27T17:40:10.544Z,31.40
2018-07-27T17:42:39.134Z,31.20
2018-07-27T17:45:08.993Z,31.10
2018-07-27T17:47:37.817Z,31.30
2018-07-27T17:50:06.552Z,31.30
2018-07-27T17:57:31.753Z,31.00
2018-07-27T18:00:00.973Z,30.80
2018-07-27T18:02:29.559Z,30.70
2018-07-27T18:04:58.732Z,30.60
2018-07-27T18:07:27.644Z,30.50
2018-07-27T18:12:25.294Z,30.40
2018-07-27T18:14:53.825Z,30.20
2018-07-27T18:19:51.170Z,29.80
2018-07-27T18:22:19.729Z,29.70
2018-07-27T18:24:48.826Z,29.70
2018-07-27T18:27:17.437Z,29.60
2018-07-27T18:29:45.988Z,29.50
2018-07-27T18:32:14.572Z,29.40
2018-07-27T18:34:43.107Z,29.10
2018-07-27T18:37:11.692Z,29.00
2018-07-27T18:39:40.305Z,28.90
2018-07-27T18:42:08.822Z,28.80
2018-07-27T18:44:37.418Z,28.60
2018-07-27T18:47:05.957Z,28.50
2018-07-27T18:49:34.506Z,28.20
2018-07-27T18:52:03.016Z,28.10
2018-07-27T18:54:31.575Z,28.00
2018-07-27T18:57:00.078Z,27.80
2018-07-27T18:59:28.691Z,27.70
2018-07-27T19:01:57.253Z,27.60
2018-07-27T19:04:25.820Z,27.30
2018-07-27T19:09:22.584Z,27.20
2018-07-27T19:11:51.101Z,27.10
2018-07-27T19:14:19.644Z,26.90
2018-07-27T19:21:45.252Z,26.60
2018-07-27T19:24:13.825Z,26.60
2018-07-27T19:26:42.364Z,26.60
2018-07-27T19:31:39.789Z,26.40
2018-07-27T19:34:08.401Z,26.30
2018-07-27T19:36:38.540Z,26.10
2018-07-27T19:39:09.333Z,25.90
2018-07-27T19:41:37.941Z,25.70
2018-07-27T19:44:06.737Z,25.50
2018-07-27T19:46:35.298Z,25.30
2018-07-27T19:49:04.238Z,25.40
2018-07-27T19:51:33.914Z,25.30
2018-07-27T19:54:02.568Z,25.40
2018-07-27T19:56:31.250Z,25.30
2018-07-27T19:58:59.874Z,25.30
2018-07-27T20:01:28.473Z,25.30
2018-07-27T20:06:25.691Z,25.20
2018-07-27T20:08:54.773Z,25.20
2018-07-27T20:11:23.281Z,25.20
2018-07-27T20:13:51.870Z,25.10
2018-07-27T20:16:20.898Z,25.00
2018-07-27T20:18:49.476Z,24.90
2018-07-27T20:21:18.947Z,24.80
2018-07-27T20:23:47.510Z,24.80
2018-07-27T20:26:16.060Z,24.80
2018-07-27T20:28:44.617Z,24.70
2018-07-27T20:31:13.217Z,24.70
2018-07-27T20:33:41.768Z,24.70
2018-07-27T20:36:10.284Z,24.60
2018-07-27T20:38:38.833Z,24.50
2018-07-27T20:41:08.550Z,24.40
2018-07-27T20:43:37.093Z,24.30
2018-07-27T20:46:06.440Z,24.20
2018-07-27T20:48:35.014Z,24.10
2018-07-27T20:51:03.603Z,24.00
2018-07-27T20:53:32.162Z,23.90
2018-07-27T20:56:00.696Z,23.90
2018-07-27T20:58:30.474Z,23.80
2018-07-27T21:00:59.000Z,23.60
2018-07-27T21:03:27.983Z,23.50
2018-07-27T21:05:56.506Z,23.50
2018-07-27T21:08:25.077Z,23.60
2018-07-27T21:13:21.774Z,23.60
2018-07-27T21:15:50.336Z,23.50
2018-07-27T21:18:18.894Z,23.30
2018-07-27T21:23:15.737Z,23.20
2018-07-27T21:25:44.343Z,23.20
2018-07-27T21:28:12.934Z,23.30
2018-07-27T21:33:09.702Z,23.20
2018-07-27T21:35:40.774Z,23.10
2018-07-27T21:38:09.665Z,23.00
2018-07-27T21:40:39.354Z,23.00
2018-07-27T21:43:08.093Z,23.00
2018-07-27T21:45:37.193Z,22.90
2018-07-27T21:48:05.817Z,22.90
2018-07-27T21:50:35.524Z,22.80
2018-07-27T21:53:04.069Z,22.80
2018-07-27T21:55:33.651Z,22.70
2018-07-27T21:58:02.866Z,22.60
2018-07-27T22:00:34.421Z,22.50
2018-07-27T22:03:05.033Z,22.50
2018-07-27T22:05:34.285Z,22.50
2018-07-27T22:08:02.835Z,22.40
2018-07-27T22:10:31.440Z,22.20
2018-07-27T22:13:00.025Z,22.20
2018-07-27T22:15:28.585Z,22.30
2018-07-27T22:17:57.681Z,22.20
2018-07-27T22:20:27.188Z,22.20
2018-07-27T22:22:55.721Z,22.20
2018-07-27T22:25:24.277Z,22.20
2018-07-27T22:27:52.813Z,22.20
2018-07-27T22:30:21.392Z,22.20
2018-07-27T22:32:49.912Z,22.20
2018-07-27T22:35:18.417Z,22.10
2018-07-27T22:42:44.451Z,22.00
2018-07-27T22:45:12.981Z,22.00
2018-07-27T22:47:41.480Z,21.90
2018-07-27T22:50:10.039Z,21.80
2018-07-27T22:52:39.560Z,21.70
2018-07-27T22:55:10.841Z,21.60
2018-07-27T22:57:40.313Z,21.50
2018-07-27T23:00:12.398Z,21.40
2018-07-27T23:02:41.472Z,21.30
2018-07-27T23:05:10.194Z,21.30
2018-07-27T23:07:38.967Z,21.40
2018-07-27T23:10:10.033Z,21.40
2018-07-27T23:12:38.808Z,21.40
2018-07-27T23:15:09.481Z,21.40
2018-07-27T23:17:38.090Z,21.50
2018-07-27T23:22:37.001Z,21.60
2018-07-27T23:25:06.387Z,21.60
2018-07-27T23:27:34.869Z,21.60
2018-07-27T23:32:31.716Z,21.50
2018-07-27T23:35:00.266Z,21.60
2018-07-27T23:37:29.293Z,21.50
2018-07-27T23:39:57.877Z,21.50
2018-07-27T23:42:26.738Z,21.40
2018-07-27T23:44:55.419Z,21.30
2018-07-27T23:47:23.961Z,21.30
2018-07-27T23:52:20.947Z,21.20
2018-07-27T23:54:49.657Z,21.20
2018-07-27T23:57:18.241Z,21.30
2018-07-27T23:59:46.803Z,21.30
